createdAt,value
2019-02-05T00:00:28.843Z,0.00
2019-02-05T00:01:28.862Z,0.00
2019-02-05T00:02:28.893Z,0.00
2019-02-05T00:03:28.810Z,0.00
2019-02-05T00:04:28.795Z,0.00
2019-02-05T00:05:28.794Z,0.00
2019-02-05T00:06:28.778Z,0.00
2019-02-05T00:07:28.766Z,0.00
2019-02-05T00:08:28.776Z,0.00
2019-02-05T00:09:28.745Z,0.00
2019-02-05T00:10:28.728Z,0.00
2019-02-05T00:11:28.724Z,0.00
2019-02-05T00:12:28.710Z,0.00
2019-02-05T00:13:28.709Z,0.00
2019-02-05T00:14:28.700Z,0.00
2019-02-05T00:15:28.673Z,0.00
2019-02-05T00:16:28.666Z,0.00
2019-02-05T00:17:28.648Z,0.00
2019-02-05T00:18:28.669Z,0.00
2019-02-05T00:19:28.638Z,0.00
2019-02-05T00:20:28.615Z,0.00
2019-02-05T00:21:28.626Z,0.00
2019-02-05T00:22:28.604Z,0.00
2019-02-05T00:23:28.601Z,0.00
2019-02-05T00:24:28.573Z,0.00
2019-02-05T00:25:28.561Z,0.00
2019-02-05T00:26:28.558Z,0.00
2019-02-05T00:27:28.538Z,0.00
2019-02-05T00:28:28.542Z,0.00
2019-02-05T00:29:28.521Z,0.00
2019-02-05T00:30:28.540Z,0.00
2019-02-05T00:31:28.501Z,0.00
2019-02-05T00:32:28.487Z,0.00
2019-02-05T00:33:28.493Z,0.00
2019-02-05T00:34:28.478Z,0.00
2019-02-05T00:35:28.447Z,0.00
2019-02-05T00:36:28.436Z,0.00
2019-02-05T00:37:28.433Z,0.00
2019-02-05T00:38:28.474Z,0.00
2019-02-05T00:39:28.407Z,0.00
2019-02-05T00:40:28.391Z,0.00
2019-02-05T00:41:28.385Z,0.00
2019-02-05T00:42:28.376Z,0.00
2019-02-05T00:43:28.380Z,0.00
2019-02-05T00:44:28.348Z,0.00
2019-02-05T00:45:28.346Z,0.00
2019-02-05T00:46:28.326Z,0.00
2019-02-05T00:47:28.312Z,0.00
2019-02-05T00:48:28.350Z,0.00
2019-02-05T00:49:28.295Z,0.00
2019-02-05T00:50:28.282Z,0.00
2019-02-05T00:51:28.267Z,0.00
2019-02-05T00:52:28.310Z,0.00
2019-02-05T00:53:28.251Z,0.00
2019-02-05T00:54:28.272Z,0.00
2019-02-05T00:55:28.224Z,0.00
2019-02-05T00:56:28.220Z,0.00
2019-02-05T00:57:28.205Z,0.00
2019-02-05T00:58:28.190Z,0.00
2019-02-05T00:59:28.204Z,0.00
2019-02-05T01:00:28.167Z,0.00
2019-02-05T01:01:28.157Z,0.00
2019-02-05T01:02:28.159Z,0.00
2019-02-05T01:03:28.136Z,0.00
2019-02-05T01:04:28.166Z,0.00
2019-02-05T01:05:28.112Z,0.00
2019-02-05T01:06:28.111Z,0.00
2019-02-05T01:07:28.101Z,0.00
2019-02-05T01:08:28.090Z,0.00
2019-02-05T01:09:28.095Z,0.00
2019-02-05T01:10:28.065Z,0.00
2019-02-05T01:11:28.048Z,0.00
2019-02-05T01:12:28.169Z,0.00
2019-02-05T01:13:28.023Z,0.00
2019-02-05T01:14:28.044Z,0.00
2019-02-05T01:15:28.000Z,0.00
2019-02-05T01:16:28.064Z,0.00
2019-02-05T01:17:27.990Z,0.00
2019-02-05T01:18:27.992Z,0.00
2019-02-05T01:19:27.978Z,0.00
2019-02-05T01:20:27.963Z,0.00
2019-02-05T01:21:27.933Z,0.00
2019-02-05T01:22:27.935Z,0.00
2019-02-05T01:23:27.911Z,0.00
2019-02-05T01:24:27.926Z,0.00
2019-02-05T01:25:27.888Z,0.00
2019-02-05T01:26:29.454Z,0.00
2019-02-05T01:27:27.872Z,0.00
2019-02-05T01:28:27.855Z,0.00
2019-02-05T01:29:27.858Z,0.00
2019-02-05T01:30:27.875Z,0.00
2019-02-05T01:31:27.831Z,0.00
2019-02-05T01:32:27.826Z,0.00
2019-02-05T01:33:27.811Z,0.00
2019-02-05T01:34:27.798Z,0.00
2019-02-05T01:35:27.801Z,0.00
2019-02-05T01:36:27.781Z,0.00
2019-02-05T01:37:27.770Z,0.00
2019-02-05T01:38:27.745Z,0.00
2019-02-05T01:39:27.730Z,0.00
2019-02-05T01:40:27.752Z,0.00
2019-02-05T01:41:27.714Z,0.00
2019-02-05T01:42:27.700Z,0.00
2019-02-05T01:43:27.690Z,0.00
2019-02-05T01:44:27.689Z,0.00
2019-02-05T01:45:27.779Z,0.00
2019-02-05T01:46:27.662Z,0.00
2019-02-05T01:47:27.640Z,0.00
2019-02-05T01:48:27.630Z,0.00
2019-02-05T01:49:27.622Z,0.00
2019-02-05T01:50:27.875Z,0.00
2019-02-05T01:51:27.681Z,0.00
2019-02-05T01:52:27.613Z,0.00
2019-02-05T01:53:27.576Z,0.00
2019-02-05T01:54:27.567Z,0.00
2019-02-05T01:55:27.714Z,0.00
2019-02-05T01:56:27.540Z,0.00
2019-02-05T01:57:27.645Z,0.00
2019-02-05T01:58:27.520Z,0.00
2019-02-05T01:59:27.510Z,0.00
2019-02-05T02:00:30.494Z,0.00
2019-02-05T02:01:27.494Z,0.00
2019-02-05T02:02:27.481Z,0.00
2019-02-05T02:03:27.467Z,0.00
2019-02-05T02:04:27.463Z,0.00
2019-02-05T02:05:27.462Z,0.00
2019-02-05T02:06:27.428Z,0.00
2019-02-05T02:07:27.421Z,0.00
2019-02-05T02:08:27.416Z,0.00
2019-02-05T02:09:27.438Z,0.00
2019-02-05T02:10:27.403Z,0.00
2019-02-05T02:11:27.374Z,0.00
2019-02-05T02:12:27.362Z,0.00
2019-02-05T02:13:27.353Z,0.00
2019-02-05T02:14:27.344Z,0.00
2019-02-05T02:15:27.366Z,0.00
2019-02-05T02:16:27.322Z,0.00
2019-02-05T02:17:27.304Z,0.00
2019-02-05T02:18:27.296Z,0.00
2019-02-05T02:19:27.284Z,0.00
2019-02-05T02:20:27.275Z,0.00
2019-02-05T02:21:27.322Z,0.00
2019-02-05T02:22:27.259Z,0.00
2019-02-05T02:23:27.243Z,0.00
2019-02-05T02:24:27.230Z,0.00
2019-02-05T02:25:27.223Z,0.00
2019-02-05T02:26:27.225Z,0.00
2019-02-05T02:27:27.196Z,0.00
2019-02-05T02:28:27.184Z,0.00
2019-02-05T02:29:27.182Z,0.00
2019-02-05T02:30:27.176Z,0.00
2019-02-05T02:31:27.177Z,0.00
2019-02-05T02:32:27.139Z,0.00
2019-02-05T02:33:27.139Z,0.00
2019-02-05T02:34:27.114Z,0.00
2019-02-05T02:35:27.111Z,0.00
2019-02-05T02:36:27.116Z,0.00
2019-02-05T02:37:27.084Z,0.00
2019-02-05T02:38:27.074Z,0.00
2019-02-05T02:39:27.074Z,0.00
2019-02-05T02:40:27.048Z,0.00
2019-02-05T02:41:27.056Z,0.00
2019-02-05T02:42:27.036Z,0.00
2019-02-05T02:43:27.032Z,0.00
2019-02-05T02:44:27.008Z,0.00
2019-02-05T02:45:27.011Z,0.00
2019-02-05T02:46:27.008Z,0.00
2019-02-05T02:47:27.864Z,0.00
2019-02-05T02:48:26.961Z,0.00
2019-02-05T02:49:26.952Z,0.00
2019-02-05T02:50:26.958Z,0.00
2019-02-05T02:51:26.944Z,0.00
2019-02-05T02:52:26.914Z,0.00
2019-02-05T02:53:26.912Z,0.00
2019-02-05T02:54:26.896Z,0.00
2019-02-05T02:55:26.883Z,0.00
2019-02-05T02:56:26.890Z,0.00
2019-02-05T02:57:26.858Z,0.00
2019-02-05T02:58:26.847Z,0.00
2019-02-05T02:59:26.838Z,0.00
2019-02-05T03:00:26.845Z,0.00
2019-02-05T03:01:26.830Z,0.00
2019-02-05T03:02:26.810Z,0.00
2019-02-05T03:03:26.796Z,0.00
2019-02-05T03:04:26.778Z,0.00
2019-02-05T03:05:26.788Z,0.00
2019-02-05T03:06:26.794Z,0.00
2019-02-05T03:07:26.757Z,0.00
2019-02-05T03:08:26.743Z,0.00
2019-02-05T03:09:26.737Z,0.00
2019-02-05T03:10:26.713Z,0.00
2019-02-05T03:11:26.748Z,0.00
2019-02-05T03:12:26.698Z,0.00
2019-02-05T03:13:26.677Z,0.00
2019-02-05T03:14:26.714Z,0.00
2019-02-05T03:15:26.663Z,0.00
2019-02-05T03:16:26.664Z,0.00
2019-02-05T03:17:26.631Z,0.00
2019-02-05T03:18:26.628Z,0.00
2019-02-05T03:19:26.611Z,0.00
2019-02-05T03:20:26.612Z,0.00
2019-02-05T03:21:26.619Z,0.00
2019-02-05T03:22:26.573Z,0.00
2019-02-05T03:23:26.562Z,0.00
2019-02-05T03:24:26.557Z,0.00
2019-02-05T03:25:26.551Z,0.00
2019-02-05T03:26:26.602Z,0.00
2019-02-05T03:27:26.525Z,0.00
2019-02-05T03:28:26.504Z,0.00
2019-02-05T03:29:26.499Z,0.00
2019-02-05T03:30:26.498Z,0.00
2019-02-05T03:31:26.501Z,0.00
2019-02-05T03:32:26.487Z,0.00
2019-02-05T03:33:26.473Z,0.00
2019-02-05T03:34:26.447Z,0.00
2019-02-05T03:35:26.439Z,0.00
2019-02-05T03:36:26.421Z,0.00
2019-02-05T03:37:26.431Z,0.00
2019-02-05T03:38:26.402Z,0.00
2019-02-05T03:39:26.383Z,0.00
2019-02-05T03:40:26.377Z,0.00
2019-02-05T03:41:26.371Z,0.00
2019-02-05T03:42:26.389Z,0.00
2019-02-05T03:43:26.339Z,0.00
2019-02-05T03:44:26.361Z,0.00
2019-02-05T03:45:26.317Z,0.00
2019-02-05T03:46:26.346Z,0.00
2019-02-05T03:47:26.307Z,0.00
2019-02-05T03:48:26.311Z,0.00
2019-02-05T03:49:26.285Z,0.00
2019-02-05T03:50:26.263Z,0.00
2019-02-05T03:51:26.249Z,0.00
2019-02-05T03:52:26.261Z,0.00
2019-02-05T03:53:26.241Z,0.00
2019-02-05T03:54:26.226Z,0.00
2019-02-05T03:55:26.207Z,0.00
2019-02-05T03:56:26.212Z,0.00
2019-02-05T03:57:30.945Z,0.00
2019-02-05T03:58:27.169Z,0.00
2019-02-05T03:59:26.218Z,0.00
2019-02-05T04:00:26.213Z,0.00
2019-02-05T04:01:26.142Z,0.00
2019-02-05T04:02:26.147Z,0.00
2019-02-05T04:03:26.116Z,0.00
2019-02-05T04:04:26.110Z,0.00
2019-02-05T04:05:26.105Z,0.00
2019-02-05T04:06:26.087Z,0.00
2019-02-05T04:07:26.099Z,0.00
2019-02-05T04:08:26.059Z,0.00
2019-02-05T04:09:26.049Z,0.00
2019-02-05T04:10:26.045Z,0.00
2019-02-05T04:11:26.027Z,0.00
2019-02-05T04:12:26.053Z,0.00
2019-02-05T04:13:26.006Z,0.00
2019-02-05T04:14:26.004Z,0.00
2019-02-05T04:15:26.007Z,0.00
2019-02-05T04:16:25.971Z,0.00
2019-02-05T04:17:26.016Z,0.00
2019-02-05T04:18:25.978Z,0.00
2019-02-05T04:19:25.943Z,0.00
2019-02-05T04:20:25.927Z,0.00
2019-02-05T04:21:25.937Z,0.00
2019-02-05T04:22:25.913Z,0.00
2019-02-05T04:23:25.916Z,0.00
2019-02-05T04:24:25.883Z,0.00
2019-02-05T04:25:25.871Z,0.00
2019-02-05T04:26:25.859Z,0.00
2019-02-05T04:27:25.857Z,0.00
2019-02-05T04:28:25.858Z,0.00
2019-02-05T04:29:25.825Z,0.00
2019-02-05T04:30:25.816Z,0.00
2019-02-05T04:31:25.814Z,0.00
2019-02-05T04:32:25.795Z,0.00
2019-02-05T04:33:25.807Z,0.00
2019-02-05T04:34:25.773Z,0.00
2019-02-05T04:35:25.767Z,0.00
2019-02-05T04:36:25.757Z,0.00
2019-02-05T04:37:25.749Z,0.00
2019-02-05T04:38:25.798Z,0.00
2019-02-05T04:39:25.721Z,0.00
2019-02-05T04:40:25.716Z,0.00
2019-02-05T04:41:25.693Z,0.00
2019-02-05T04:42:25.687Z,0.00
2019-02-05T04:43:25.684Z,0.00
2019-02-05T04:44:25.661Z,0.00
2019-02-05T04:45:33.785Z,0.00
2019-02-05T04:46:26.637Z,0.00
2019-02-05T04:47:25.626Z,0.00
2019-02-05T04:48:25.637Z,0.00
2019-02-05T04:49:25.616Z,0.00
2019-02-05T04:50:25.605Z,0.00
2019-02-05T04:51:25.585Z,0.00
2019-02-05T04:52:25.568Z,0.00
2019-02-05T04:53:25.592Z,0.00
2019-02-05T04:54:25.547Z,0.00
2019-02-05T04:55:25.541Z,0.00
2019-02-05T04:56:25.573Z,0.00
2019-02-05T04:57:25.515Z,0.00
2019-02-05T04:58:25.502Z,0.00
2019-02-05T04:59:25.526Z,0.00
2019-02-05T05:00:25.496Z,0.00
2019-02-05T05:01:25.473Z,0.00
2019-02-05T05:02:25.462Z,0.00
2019-02-05T05:03:25.459Z,0.00
2019-02-05T05:04:25.450Z,0.00
2019-02-05T05:05:25.429Z,0.00
2019-02-05T05:06:25.428Z,0.00
2019-02-05T05:07:25.410Z,0.00
2019-02-05T05:08:25.392Z,0.00
2019-02-05T05:09:25.495Z,0.00
2019-02-05T05:10:25.375Z,0.00
2019-02-05T05:11:25.372Z,0.00
2019-02-05T05:12:25.365Z,0.00
2019-02-05T05:13:25.392Z,0.00
2019-02-05T05:14:25.348Z,0.00
2019-02-05T05:15:25.328Z,0.00
2019-02-05T05:16:25.308Z,0.00
2019-02-05T05:17:25.295Z,0.00
2019-02-05T05:18:25.286Z,0.00
2019-02-05T05:19:25.288Z,0.00
2019-02-05T05:20:25.256Z,0.00
2019-02-05T05:21:25.251Z,0.00
2019-02-05T05:22:25.235Z,0.00
2019-02-05T05:23:25.241Z,0.00
2019-02-05T05:24:25.307Z,0.00
2019-02-05T05:25:25.206Z,0.00
2019-02-05T05:26:25.192Z,0.00
2019-02-05T05:27:25.189Z,0.00
2019-02-05T05:28:25.170Z,0.00
2019-02-05T05:29:25.168Z,0.00
2019-02-05T05:30:25.155Z,0.00
2019-02-05T05:31:25.130Z,0.00
2019-02-05T05:32:25.122Z,0.00
2019-02-05T05:33:25.124Z,0.00
2019-02-05T05:34:25.140Z,0.00
2019-02-05T05:35:25.091Z,0.00
2019-02-05T05:36:25.086Z,0.00
2019-02-05T05:37:25.065Z,0.00
2019-02-05T05:38:25.056Z,0.00
2019-02-05T05:39:25.042Z,0.00
2019-02-05T05:40:25.052Z,0.00
2019-02-05T05:41:25.024Z,0.00
2019-02-05T05:42:25.007Z,0.00
2019-02-05T05:43:25.002Z,0.00
2019-02-05T05:44:24.990Z,0.00
2019-02-05T05:45:25.000Z,0.00
2019-02-05T05:46:24.975Z,0.00
2019-02-05T05:47:24.956Z,0.00
2019-02-05T05:48:24.941Z,0.00
2019-02-05T05:49:24.930Z,0.00
2019-02-05T05:50:24.942Z,0.00
2019-02-05T05:51:24.920Z,0.00
2019-02-05T05:52:24.905Z,0.00
2019-02-05T05:53:24.887Z,0.00
2019-02-05T05:54:24.875Z,0.00
2019-02-05T05:55:24.891Z,0.00
2019-02-05T05:56:24.914Z,0.00
2019-02-05T05:57:24.861Z,0.00
2019-02-05T05:58:24.830Z,0.00
2019-02-05T05:59:24.821Z,0.00
2019-02-05T06:00:24.826Z,0.00
2019-02-05T06:01:24.804Z,0.00
2019-02-05T06:02:24.865Z,0.00
2019-02-05T06:03:24.776Z,0.00
2019-02-05T06:04:24.768Z,0.00
2019-02-05T06:05:24.757Z,0.00
2019-02-05T06:06:24.759Z,0.00
2019-02-05T06:07:24.738Z,0.00
2019-02-05T06:08:24.714Z,0.00
2019-02-05T06:09:24.709Z,0.00
2019-02-05T06:10:24.713Z,0.00
2019-02-05T06:11:24.682Z,0.00
2019-02-05T06:12:24.689Z,0.00
2019-02-05T06:13:24.659Z,0.00
2019-02-05T06:14:24.651Z,0.00
2019-02-05T06:15:24.657Z,0.00
2019-02-05T06:16:24.625Z,0.00
2019-02-05T06:17:24.621Z,0.00
2019-02-05T06:18:24.612Z,0.00
2019-02-05T06:19:24.599Z,0.00
2019-02-05T06:20:24.610Z,0.00
2019-02-05T06:21:24.576Z,0.00
2019-02-05T06:22:24.603Z,0.00
2019-02-05T06:23:24.545Z,0.00
2019-02-05T06:24:24.540Z,0.00
2019-02-05T06:25:24.565Z,0.00
2019-02-05T06:26:24.526Z,0.00
2019-02-05T06:27:24.505Z,0.00
2019-02-05T06:28:34.359Z,0.00
2019-02-05T06:29:25.492Z,0.00
2019-02-05T06:30:24.470Z,0.00
2019-02-05T06:31:24.489Z,0.00
2019-02-05T06:32:24.465Z,4.00
2019-02-05T06:33:24.434Z,4.00
2019-02-05T06:34:24.427Z,4.00
2019-02-05T06:35:24.413Z,0.00
2019-02-05T06:36:24.420Z,4.00
2019-02-05T06:37:24.395Z,4.00
2019-02-05T06:38:24.408Z,4.00
2019-02-05T06:39:24.370Z,4.00
2019-02-05T06:40:24.361Z,8.00
2019-02-05T06:41:24.381Z,4.00
2019-02-05T06:42:24.333Z,8.00
2019-02-05T06:43:24.326Z,8.00
2019-02-05T06:44:24.325Z,8.00
2019-02-05T06:45:24.325Z,8.00
2019-02-05T06:46:24.315Z,12.00
2019-02-05T06:47:24.282Z,12.00
2019-02-05T06:48:24.265Z,12.00
2019-02-05T06:49:24.265Z,12.00
2019-02-05T06:50:24.262Z,12.00
2019-02-05T06:51:24.256Z,16.00
2019-02-05T06:52:24.229Z,16.00
2019-02-05T06:53:24.213Z,16.00
2019-02-05T06:54:24.207Z,16.00
2019-02-05T06:55:24.194Z,24.00
2019-02-05T06:56:24.205Z,20.00
2019-02-05T06:57:24.169Z,24.00
2019-02-05T06:58:24.157Z,24.00
2019-02-05T06:59:24.155Z,28.00
2019-02-05T07:00:24.135Z,32.00
2019-02-05T07:01:24.155Z,32.00
2019-02-05T07:02:24.111Z,32.00
2019-02-05T07:03:24.101Z,36.00
2019-02-05T07:04:24.112Z,36.00
2019-02-05T07:05:24.091Z,40.00
2019-02-05T07:06:24.070Z,40.00
2019-02-05T07:07:24.076Z,40.00
2019-02-05T07:08:24.056Z,40.00
2019-02-05T07:09:24.039Z,44.00
2019-02-05T07:10:24.024Z,48.00
2019-02-05T07:11:24.008Z,52.00
2019-02-05T07:12:24.028Z,56.00
2019-02-05T07:13:23.992Z,64.00
2019-02-05T07:14:23.993Z,64.00
2019-02-05T07:15:23.963Z,56.00
2019-02-05T07:16:23.953Z,64.00
2019-02-05T07:17:23.960Z,68.00
2019-02-05T07:18:23.950Z,72.00
2019-02-05T07:19:23.939Z,68.00
2019-02-05T07:20:23.911Z,68.00
2019-02-05T07:21:23.896Z,64.00
2019-02-05T07:22:23.923Z,68.00
2019-02-05T07:23:23.884Z,68.00
2019-02-05T07:24:23.860Z,72.00
2019-02-05T07:25:23.858Z,80.00
2019-02-05T07:26:23.853Z,84.00
2019-02-05T07:27:23.846Z,92.00
2019-02-05T07:28:23.834Z,88.00
2019-02-05T07:29:23.812Z,84.00
2019-02-05T07:30:23.823Z,84.00
2019-02-05T07:31:23.792Z,84.00
2019-02-05T07:32:23.803Z,80.00
2019-02-05T07:33:23.768Z,84.00
2019-02-05T07:34:23.768Z,84.00
2019-02-05T07:35:23.763Z,88.00
2019-02-05T07:36:23.729Z,88.00
2019-02-05T07:37:23.780Z,92.00
2019-02-05T07:38:23.722Z,108.00
2019-02-05T07:39:23.704Z,112.00
2019-02-05T07:40:23.692Z,116.00
2019-02-05T07:41:23.676Z,132.00
2019-02-05T07:42:23.682Z,124.00
2019-02-05T07:43:23.650Z,128.00
2019-02-05T07:44:23.643Z,132.00
2019-02-05T07:45:23.631Z,124.00
2019-02-05T07:46:23.637Z,144.00
2019-02-05T07:47:23.674Z,152.00
2019-02-05T07:48:23.602Z,152.00
2019-02-05T07:49:23.597Z,136.00
2019-02-05T07:50:23.576Z,136.00
2019-02-05T07:51:23.579Z,156.00
2019-02-05T07:52:23.560Z,160.00
2019-02-05T07:53:23.564Z,164.00
2019-02-05T07:54:23.532Z,140.00
2019-02-05T07:55:23.563Z,148.00
2019-02-05T07:56:23.518Z,164.00
2019-02-05T07:57:23.503Z,208.00
2019-02-05T07:58:23.513Z,212.00
2019-02-05T07:59:23.517Z,192.00
2019-02-05T08:00:23.498Z,176.00
2019-02-05T08:01:23.480Z,164.00
2019-02-05T08:02:23.449Z,140.00
2019-02-05T08:03:23.457Z,160.00
2019-02-05T08:04:23.427Z,184.00
2019-02-05T08:05:23.411Z,216.00
2019-02-05T08:06:23.418Z,200.00
2019-02-05T08:07:23.455Z,180.00
2019-02-05T08:08:23.408Z,204.00
2019-02-05T08:09:23.376Z,188.00
2019-02-05T08:10:23.369Z,196.00
2019-02-05T08:11:23.390Z,168.00
2019-02-05T08:12:23.349Z,168.00
2019-02-05T08:13:23.350Z,172.00
2019-02-05T08:14:23.322Z,188.00
2019-02-05T08:15:23.344Z,188.00
2019-02-05T08:16:23.292Z,184.00
2019-02-05T08:17:23.277Z,212.00
2019-02-05T08:18:23.306Z,276.00
2019-02-05T08:19:23.287Z,240.00
2019-02-05T08:20:23.262Z,204.00
2019-02-05T08:21:23.281Z,276.00
2019-02-05T08:22:23.217Z,260.00
2019-02-05T08:23:23.248Z,236.00
2019-02-05T08:24:23.211Z,256.00
2019-02-05T08:25:23.186Z,308.00
2019-02-05T08:26:23.173Z,296.00
2019-02-05T08:27:23.187Z,196.00
2019-02-05T08:28:23.150Z,232.00
2019-02-05T08:29:23.161Z,272.00
2019-02-05T08:30:23.129Z,344.00
2019-02-05T08:31:23.122Z,276.00
2019-02-05T08:32:23.104Z,212.00
2019-02-05T08:33:23.094Z,252.00
2019-02-05T08:34:23.115Z,248.00
2019-02-05T08:35:23.091Z,248.00
2019-02-05T08:36:23.071Z,244.00
2019-02-05T08:37:23.052Z,260.00
2019-02-05T08:38:23.040Z,252.00
2019-02-05T08:39:23.050Z,200.00
2019-02-05T08:40:23.017Z,192.00
2019-02-05T08:41:23.019Z,168.00
2019-02-05T08:42:22.997Z,148.00
2019-02-05T08:43:22.989Z,136.00
2019-02-05T08:44:22.988Z,128.00
2019-02-05T08:45:22.964Z,152.00
2019-02-05T08:46:22.951Z,184.00
2019-02-05T08:47:22.949Z,180.00
2019-02-05T08:48:22.933Z,224.00
2019-02-05T08:49:22.939Z,208.00
2019-02-05T08:50:22.902Z,176.00
2019-02-05T08:51:22.888Z,216.00
2019-02-05T08:52:22.880Z,212.00
2019-02-05T08:53:22.878Z,256.00
2019-02-05T08:54:22.881Z,284.00
2019-02-05T08:55:22.847Z,272.00
2019-02-05T08:56:22.838Z,200.00
2019-02-05T08:57:22.837Z,220.00
2019-02-05T08:58:30.526Z,272.00
2019-02-05T08:59:23.833Z,304.00
2019-02-05T09:00:22.794Z,268.00
2019-02-05T09:01:22.791Z,276.00
2019-02-05T09:02:22.775Z,284.00
2019-02-05T09:03:22.765Z,272.00
2019-02-05T09:04:22.761Z,280.00
2019-02-05T09:05:22.760Z,244.00
2019-02-05T09:06:22.732Z,212.00
2019-02-05T09:07:22.845Z,212.00
2019-02-05T09:08:22.700Z,200.00
2019-02-05T09:09:22.712Z,160.00
2019-02-05T09:10:22.797Z,152.00
2019-02-05T09:11:22.671Z,140.00
2019-02-05T09:12:22.774Z,132.00
2019-02-05T09:13:22.646Z,120.00
2019-02-05T09:14:22.678Z,100.00
2019-02-05T09:15:29.439Z,100.00
2019-02-05T09:16:23.612Z,108.00
2019-02-05T09:17:24.382Z,136.00
2019-02-05T09:18:22.589Z,180.00
2019-02-05T09:19:22.580Z,236.00
2019-02-05T09:20:22.575Z,232.00
2019-02-05T09:21:22.614Z,216.00
2019-02-05T09:22:22.545Z,232.00
2019-02-05T09:23:22.541Z,260.00
2019-02-05T09:24:22.524Z,248.00
2019-02-05T09:25:22.527Z,232.00
2019-02-05T09:26:22.551Z,256.00
2019-02-05T09:27:22.496Z,280.00
2019-02-05T09:28:22.483Z,292.00
2019-02-05T09:29:32.984Z,276.00
2019-02-05T09:30:23.498Z,272.00
2019-02-05T09:31:22.451Z,304.00
2019-02-05T09:32:22.965Z,340.00
2019-02-05T09:33:22.423Z,316.00
2019-02-05T09:34:22.421Z,284.00
2019-02-05T09:35:22.421Z,288.00
2019-02-05T09:36:22.396Z,332.00
2019-02-05T09:37:22.379Z,360.00
2019-02-05T09:38:22.374Z,360.00
2019-02-05T09:39:22.356Z,300.00
2019-02-05T09:40:22.364Z,276.00
2019-02-05T09:41:22.358Z,304.00
2019-02-05T09:42:22.397Z,300.00
2019-02-05T09:43:22.316Z,332.00
2019-02-05T09:44:22.303Z,336.00
2019-02-05T09:45:22.379Z,300.00
2019-02-05T09:46:22.291Z,264.00
2019-02-05T09:47:22.273Z,212.00
2019-02-05T09:48:22.256Z,220.00
2019-02-05T09:49:22.260Z,284.00
2019-02-05T09:50:22.266Z,256.00
2019-02-05T09:51:22.224Z,252.00
2019-02-05T09:52:22.214Z,276.00
2019-02-05T09:53:22.206Z,244.00
2019-02-05T09:54:22.191Z,228.00
2019-02-05T09:55:22.182Z,256.00
2019-02-05T09:56:22.194Z,312.00
2019-02-05T09:57:22.155Z,276.00
2019-02-05T09:58:22.155Z,248.00
2019-02-05T09:59:22.172Z,244.00
2019-02-05T10:00:22.135Z,224.00
2019-02-05T10:01:22.149Z,228.00
2019-02-05T10:02:22.100Z,228.00
2019-02-05T10:03:22.090Z,216.00
2019-02-05T10:04:22.082Z,200.00
2019-02-05T10:05:22.067Z,200.00
2019-02-05T10:06:22.076Z,220.00
2019-02-05T10:07:22.050Z,220.00
2019-02-05T10:08:22.035Z,240.00
2019-02-05T10:09:22.020Z,208.00
2019-02-05T10:10:22.011Z,188.00
2019-02-05T10:11:22.017Z,196.00
2019-02-05T10:12:21.990Z,208.00
2019-02-05T10:13:21.970Z,204.00
2019-02-05T10:14:21.967Z,228.00
2019-02-05T10:15:21.948Z,232.00
2019-02-05T10:16:21.959Z,236.00
2019-02-05T10:17:21.931Z,260.00
2019-02-05T10:18:21.923Z,228.00
2019-02-05T10:19:21.903Z,224.00
2019-02-05T10:20:21.900Z,232.00
2019-02-05T10:21:21.914Z,248.00
2019-02-05T10:22:21.882Z,248.00
2019-02-05T10:23:21.862Z,256.00
2019-02-05T10:24:21.851Z,256.00
2019-02-05T10:25:21.839Z,244.00
2019-02-05T10:26:21.863Z,240.00
2019-02-05T10:27:21.843Z,248.00
2019-02-05T10:28:21.803Z,252.00
2019-02-05T10:29:21.794Z,256.00
2019-02-05T10:30:21.784Z,248.00
2019-02-05T10:31:21.873Z,264.00
2019-02-05T10:32:21.777Z,240.00
2019-02-05T10:33:21.751Z,240.00
2019-02-05T10:34:21.745Z,260.00
2019-02-05T10:35:22.721Z,240.00
2019-02-05T10:36:21.718Z,236.00
2019-02-05T10:37:21.723Z,244.00
2019-02-05T10:38:21.691Z,256.00
2019-02-05T10:39:21.678Z,260.00
2019-02-05T10:40:21.675Z,252.00
2019-02-05T10:41:21.654Z,240.00
2019-02-05T10:42:21.662Z,244.00
2019-02-05T10:43:21.647Z,260.00
2019-02-05T10:44:21.631Z,260.00
2019-02-05T10:45:21.603Z,256.00
2019-02-05T10:46:21.599Z,264.00
2019-02-05T10:47:21.618Z,260.00
2019-02-05T10:48:21.582Z,248.00
2019-02-05T10:49:21.567Z,256.00
2019-02-05T10:50:21.557Z,260.00
2019-02-05T10:51:21.541Z,256.00
2019-02-05T10:52:21.552Z,272.00
2019-02-05T10:53:21.527Z,288.00
2019-02-05T10:54:21.512Z,304.00
2019-02-05T10:55:21.502Z,300.00
2019-02-05T10:56:21.485Z,292.00
2019-02-05T10:57:21.506Z,296.00
2019-02-05T10:58:21.460Z,296.00
2019-02-05T10:59:21.457Z,300.00
2019-02-05T11:00:21.497Z,316.00
2019-02-05T11:01:21.464Z,304.00
2019-02-05T11:02:21.445Z,280.00
2019-02-05T11:03:21.407Z,264.00
2019-02-05T11:04:21.410Z,260.00
2019-02-05T11:05:21.385Z,256.00
2019-02-05T11:06:21.384Z,272.00
2019-02-05T11:07:21.381Z,272.00
2019-02-05T11:08:21.360Z,280.00
2019-02-05T11:09:21.343Z,280.00
2019-02-05T11:10:21.328Z,292.00
2019-02-05T11:11:21.327Z,308.00
2019-02-05T11:12:21.339Z,332.00
2019-02-05T11:13:21.294Z,300.00
2019-02-05T11:14:21.285Z,280.00
2019-02-05T11:15:21.275Z,288.00
2019-02-05T11:16:21.265Z,312.00
2019-02-05T11:17:21.264Z,328.00
2019-02-05T11:18:21.245Z,332.00
2019-02-05T11:19:21.232Z,360.00
2019-02-05T11:20:21.211Z,360.00
2019-02-05T11:21:21.204Z,356.00
2019-02-05T11:22:21.227Z,348.00
2019-02-05T11:23:21.193Z,360.00
2019-02-05T11:24:21.171Z,352.00
2019-02-05T11:25:21.165Z,356.00
2019-02-05T11:26:21.145Z,348.00
2019-02-05T11:27:21.134Z,348.00
2019-02-05T11:28:21.155Z,364.00
2019-02-05T11:29:21.149Z,376.00
2019-02-05T11:30:21.103Z,380.00
2019-02-05T11:31:21.093Z,368.00
2019-02-05T11:32:21.082Z,404.00
2019-02-05T11:33:21.143Z,372.00
2019-02-05T11:34:21.051Z,380.00
2019-02-05T11:35:21.044Z,368.00
2019-02-05T11:36:21.033Z,360.00
2019-02-05T11:37:21.024Z,356.00
2019-02-05T11:38:21.024Z,344.00
2019-02-05T11:39:21.007Z,324.00
2019-02-05T11:40:20.997Z,340.00
2019-02-05T11:41:20.989Z,356.00
2019-02-05T11:42:20.966Z,356.00
2019-02-05T11:43:20.985Z,376.00
2019-02-05T11:44:20.950Z,372.00
2019-02-05T11:45:20.950Z,344.00
2019-02-05T11:46:20.929Z,336.00
2019-02-05T11:47:20.912Z,340.00
2019-02-05T11:48:20.928Z,344.00
2019-02-05T11:49:20.888Z,348.00
2019-02-05T11:50:20.884Z,372.00
2019-02-05T11:51:20.867Z,360.00
2019-02-05T11:52:20.854Z,368.00
2019-02-05T11:53:20.874Z,380.00
2019-02-05T11:54:20.843Z,400.00
2019-02-05T11:55:20.826Z,416.00
2019-02-05T11:56:20.817Z,388.00
2019-02-05T11:57:20.800Z,400.00
2019-02-05T11:58:20.805Z,404.00
2019-02-05T11:59:20.772Z,408.00
2019-02-05T12:00:31.771Z,404.00
2019-02-05T12:01:21.761Z,424.00
2019-02-05T12:02:20.745Z,468.00
2019-02-05T12:03:20.776Z,412.00
2019-02-05T12:04:20.726Z,412.00
2019-02-05T12:05:20.715Z,384.00
2019-02-05T12:06:20.822Z,372.00
2019-02-05T12:07:20.688Z,380.00
2019-02-05T12:08:20.703Z,428.00
2019-02-05T12:09:20.771Z,440.00
2019-02-05T12:10:20.657Z,412.00
2019-02-05T12:11:20.639Z,404.00
2019-02-05T12:12:20.719Z,444.00
2019-02-05T12:13:20.636Z,380.00
2019-02-05T12:14:20.614Z,328.00
2019-02-05T12:15:20.598Z,340.00
2019-02-05T12:16:20.604Z,360.00
2019-02-05T12:17:20.575Z,380.00
2019-02-05T12:18:20.595Z,368.00
2019-02-05T12:19:20.558Z,364.00
2019-02-05T12:20:20.545Z,376.00
2019-02-05T12:21:20.530Z,452.00
2019-02-05T12:22:20.528Z,396.00
2019-02-05T12:23:20.631Z,460.00
2019-02-05T12:24:20.496Z,564.00
2019-02-05T12:25:20.484Z,472.00
2019-02-05T12:26:20.485Z,436.00
2019-02-05T12:27:20.489Z,380.00
2019-02-05T12:28:20.465Z,448.00
2019-02-05T12:29:20.442Z,396.00
2019-02-05T12:30:20.480Z,396.00
2019-02-05T12:31:20.419Z,432.00
2019-02-05T12:32:20.417Z,456.00
2019-02-05T12:33:20.430Z,472.00
2019-02-05T12:34:20.390Z,460.00
2019-02-05T12:35:20.459Z,452.00
2019-02-05T12:36:20.363Z,460.00
2019-02-05T12:37:20.389Z,484.00
2019-02-05T12:38:20.374Z,436.00
2019-02-05T12:39:20.354Z,436.00
2019-02-05T12:40:20.394Z,432.00
2019-02-05T12:41:20.358Z,500.00
2019-02-05T12:42:20.299Z,516.00
2019-02-05T12:43:20.281Z,496.00
2019-02-05T12:44:20.297Z,492.00
2019-02-05T12:45:20.274Z,436.00
2019-02-05T12:46:20.263Z,432.00
2019-02-05T12:47:20.241Z,520.00
2019-02-05T12:48:20.224Z,588.00
2019-02-05T12:49:20.255Z,448.00
2019-02-05T12:50:20.207Z,536.00
2019-02-05T12:51:20.196Z,552.00
2019-02-05T12:52:20.186Z,556.00
2019-02-05T12:53:20.184Z,612.00
2019-02-05T12:54:20.190Z,580.00
2019-02-05T12:55:20.198Z,456.00